createdAt,value
2023-05-19T00:08:20.027Z,15.79
2023-05-19T00:18:21.450Z,15.67
2023-05-19T00:28:22.935Z,15.63
2023-05-19T00:38:24.741Z,15.58
2023-05-19T00:48:26.249Z,15.46
2023-05-19T00:58:30.074Z,15.48
2023-05-19T01:08:36.136Z,15.34
2023-05-19T01:18:56.143Z,15.31
2023-05-19T01:29:07.535Z,15.23
2023-05-19T01:39:08.996Z,15.13
2023-05-19T01:49:10.423Z,15.03
2023-05-19T01:59:40.246Z,15.05
2023-05-19T02:10:23.814Z,15.02
2023-05-19T02:20:25.228Z,14.99
2023-05-19T02:30:26.813Z,14.95
2023-05-19T02:40:28.256Z,14.92
2023-05-19T02:50:29.852Z,14.90
2023-05-19T03:00:31.675Z,14.85
2023-05-19T03:10:33.447Z,14.76
2023-05-19T03:20:35.209Z,14.76
2023-05-19T03:30:37.273Z,14.69
2023-05-19T03:40:38.930Z,14.70
2023-05-19T03:50:40.532Z,14.63
2023-05-19T04:00:42.431Z,14.64
2023-05-19T04:10:43.988Z,14.54
2023-05-19T04:20:45.592Z,14.52
2023-05-19T04:30:50.671Z,14.59
2023-05-19T04:41:02.152Z,14.61
2023-05-19T04:51:05.022Z,14.72
2023-05-19T05:01:06.622Z,14.80
2023-05-19T05:11:08.296Z,14.85
2023-05-19T05:21:10.195Z,14.93
2023-05-19T05:31:11.768Z,15.14
2023-05-19T05:41:13.349Z,15.83
2023-05-19T05:51:14.947Z,16.75
2023-05-19T06:01:17.619Z,17.43
2023-05-19T06:11:19.912Z,18.07
2023-05-19T06:21:21.740Z,18.71
2023-05-19T06:31:23.245Z,19.18
2023-05-19T06:41:24.855Z,19.71
2023-05-19T06:51:26.368Z,20.15
2023-05-19T07:01:28.440Z,20.59
2023-05-19T07:11:29.886Z,21.00
2023-05-19T07:21:31.397Z,21.40
2023-05-19T07:31:32.953Z,21.72
2023-05-19T07:41:36.463Z,21.99
2023-05-19T07:51:38.150Z,22.42
2023-05-19T08:01:39.560Z,22.84
2023-05-19T08:11:41.032Z,23.25
2023-05-19T08:21:42.484Z,23.79
2023-05-19T08:31:44.109Z,24.91
2023-05-19T08:41:45.838Z,27.04
2023-05-19T08:52:09.630Z,30.26
2023-05-19T09:02:11.450Z,32.95
2023-05-19T09:12:13.183Z,35.22
2023-05-19T09:22:19.275Z,35.06
2023-05-19T09:32:27.456Z,35.77
2023-05-19T09:42:30.076Z,35.25
2023-05-19T09:52:31.543Z,29.58
2023-05-19T10:02:33.158Z,27.53
2023-05-19T10:12:34.778Z,25.00
2023-05-19T10:22:36.982Z,23.44
2023-05-19T10:32:39.284Z,22.65
2023-05-19T10:42:44.698Z,22.48
2023-05-19T10:52:49.000Z,22.34
2023-05-19T11:02:55.994Z,21.99
2023-05-19T11:12:58.291Z,21.75
2023-05-19T11:23:09.291Z,21.52
2023-05-19T11:33:10.923Z,21.41
2023-05-19T11:43:12.556Z,21.30
2023-05-19T11:53:14.035Z,21.31
2023-05-19T12:03:17.510Z,21.10
2023-05-19T12:13:19.268Z,21.19
2023-05-19T12:23:20.847Z,20.99
2023-05-19T12:33:22.851Z,20.90
2023-05-19T12:43:24.389Z,20.82
2023-05-19T12:53:26.358Z,20.80
2023-05-19T13:03:27.943Z,20.84
2023-05-19T13:13:29.465Z,20.67
2023-05-19T13:23:30.891Z,20.68
2023-05-19T13:33:32.370Z,20.68
2023-05-19T13:43:33.825Z,20.61
2023-05-19T13:53:35.394Z,20.59
2023-05-19T14:03:37.129Z,20.60
2023-05-19T14:13:42.563Z,20.45
2023-05-19T14:23:44.885Z,20.46
2023-05-19T14:33:46.540Z,20.38
2023-05-19T14:43:48.887Z,20.41
2023-05-19T14:53:50.682Z,20.40
2023-05-19T15:03:52.428Z,20.39
2023-05-19T15:13:54.081Z,20.36
2023-05-19T15:23:55.603Z,20.35
2023-05-19T15:33:57.128Z,20.36
2023-05-19T15:44:02.421Z,20.34
2023-05-19T15:54:03.846Z,20.32
2023-05-19T16:04:05.380Z,20.31
2023-05-19T16:14:06.986Z,20.31
2023-05-19T16:24:08.434Z,20.35
2023-05-19T16:34:09.994Z,20.35
2023-05-19T16:44:14.198Z,20.30
2023-05-19T16:54:15.788Z,20.27
2023-05-19T17:04:17.226Z,20.25
2023-05-19T17:14:18.707Z,20.21
2023-05-19T17:24:20.254Z,20.19
2023-05-19T17:34:21.864Z,20.16
2023-05-19T17:44:23.317Z,20.13
2023-05-19T17:54:26.083Z,20.09
2023-05-19T18:04:27.730Z,20.03
2023-05-19T18:14:29.315Z,19.93
2023-05-19T18:24:30.773Z,19.85
2023-05-19T18:34:32.353Z,19.72
2023-05-19T18:44:33.849Z,19.65
2023-05-19T18:54:35.394Z,19.55
2023-05-19T19:04:36.912Z,19.45
2023-05-19T19:14:38.929Z,19.36
2023-05-19T19:24:42.914Z,19.29
2023-05-19T19:34:44.400Z,19.20
2023-05-19T19:44:45.929Z,19.12
2023-05-19T19:54:48.032Z,19.07
2023-05-19T20:04:49.476Z,19.02
2023-05-19T20:14:53.467Z,18.96
2023-05-19T20:24:54.898Z,18.89
2023-05-19T20:34:56.496Z,18.82
2023-05-19T20:44:58.077Z,18.75
2023-05-19T20:54:59.531Z,18.68
2023-05-19T21:05:01.093Z,18.58
2023-05-19T21:15:03.518Z,18.51
2023-05-19T21:25:05.329Z,18.46
2023-05-19T21:35:07.177Z,18.36
2023-05-19T21:45:09.193Z,18.30
2023-05-19T21:55:10.664Z,18.27
2023-05-19T22:05:12.304Z,18.19
2023-05-19T22:15:14.359Z,18.15
2023-05-19T22:25:16.048Z,18.11
2023-05-19T22:35:17.772Z,18.00
2023-05-19T22:45:19.251Z,17.97
2023-05-19T22:55:21.047Z,17.94
2023-05-19T23:05:22.480Z,17.87
2023-05-19T23:15:24.040Z,17.80
2023-05-19T23:25:25.478Z,17.76
2023-05-19T23:35:26.958Z,17.70
2023-05-19T23:45:28.387Z,17.66
2023-05-19T23:55:29.951Z,17.56
